Time;durP1;ratioP1;P1;durP2;ratioP2;P2;SDS_P1;SDS_P2;PMS_P1;PMS_P2;Temp;Humidity;BMP_temperature;BMP_pressure;BME280_temperature;BME280_humidity;BME280_pressure;Samples;Min_cycle;Max_cycle;Signal;HPM_P1;HPM_P2
2021/03/13 00:01:01;;;;;;;1.10;0.80;;;7.00;86.90;;;;;;4952948;28;20038;-86
2021/03/13 00:03:26;;;;;;;0.95;0.80;;;6.90;87.00;;;;;;4991290;28;20049;-89
2021/03/13 00:05:52;;;;;;;1.10;0.70;;;6.90;86.60;;;;;;4959545;28;20042;-89
2021/03/13 00:08:17;;;;;;;1.15;0.80;;;7.00;86.70;;;;;;4959604;28;20042;-89
2021/03/13 00:10:45;;;;;;;0.65;0.65;;;6.90;86.50;;;;;;4964350;28;20046;-88
2021/03/13 00:13:11;;;;;;;0.70;0.70;;;6.90;86.70;;;;;;4962108;28;20094;-88
2021/03/13 00:15:39;;;;;;;1.25;0.80;;;7.00;86.40;;;;;;4958913;28;20635;-89
2021/03/13 00:18:06;;;;;;;1.50;0.98;;;7.00;86.40;;;;;;4985986;28;20043;-87
2021/03/13 00:20:34;;;;;;;2.67;0.80;;;7.00;86.00;;;;;;4993151;28;20180;-89
2021/03/13 00:23:00;;;;;;;3.35;0.70;;;7.10;86.20;;;;;;4987997;28;20054;-87
2021/03/13 00:25:28;;;;;;;1.00;0.90;;;7.10;86.10;;;;;;4968266;28;20042;-88
2021/03/13 00:27:54;;;;;;;1.10;0.70;;;7.10;86.50;;;;;;4972510;28;20038;-89
2021/03/13 00:30:21;;;;;;;1.48;0.70;;;7.10;86.20;;;;;;4977427;28;20644;-88
2021/03/13 00:32:52;;;;;;;0.60;0.60;;;7.10;86.30;;;;;;4989513;28;20043;-88
2021/03/13 00:35:19;;;;;;;2.40;0.70;;;7.20;86.20;;;;;;4975340;28;20034;-90
2021/03/13 00:37:45;;;;;;;1.30;0.93;;;7.20;85.90;;;;;;4962552;28;20095;-89
2021/03/13 00:40:14;;;;;;;1.27;0.75;;;7.20;85.90;;;;;;4966277;28;20384;-89
2021/03/13 00:42:40;;;;;;;1.08;0.75;;;7.20;86.00;;;;;;4964143;28;20501;-87
2021/03/13 00:45:08;;;;;;;1.58;0.70;;;7.20;86.60;;;;;;4958215;28;20385;-89
2021/03/13 00:47:34;;;;;;;1.90;0.90;;;7.20;86.40;;;;;;4959517;28;20435;-89
2021/03/13 00:50:00;;;;;;;3.58;0.95;;;7.20;86.30;;;;;;4979922;28;20040;-88
2021/03/13 00:52:25;;;;;;;2.47;0.95;;;7.20;86.30;;;;;;4954597;28;20039;-88
2021/03/13 00:54:51;;;;;;;1.02;0.60;;;7.30;86.20;;;;;;4950238;28;20045;-89
2021/03/13 00:57:16;;;;;;;2.83;0.80;;;7.30;85.90;;;;;;4971259;28;20355;-89
2021/03/13 00:59:42;;;;;;;1.45;0.90;;;7.30;85.80;;;;;;4998358;28;20433;-89
2021/03/13 01:02:07;;;;;;;1.38;1.08;;;7.30;85.50;;;;;;4963794;28;20070;-89
2021/03/13 01:04:33;;;;;;;2.15;1.17;;;7.30;85.70;;;;;;4955599;28;20039;-88
2021/03/13 01:06:59;;;;;;;3.30;0.90;;;7.30;85.30;;;;;;4972950;28;20113;-89
2021/03/13 01:09:24;;;;;;;1.92;0.70;;;7.40;85.60;;;;;;4962381;28;20043;-88
2021/03/13 01:11:50;;;;;;;1.40;1.02;;;7.40;85.10;;;;;;5059380;28;20039;-88
2021/03/13 01:14:16;;;;;;;2.72;0.85;;;7.40;84.80;;;;;;4964027;28;20038;-89
2021/03/13 01:16:41;;;;;;;1.20;0.93;;;7.30;85.00;;;;;;5048882;28;20036;-87
2021/03/13 01:19:07;;;;;;;0.93;0.85;;;7.30;85.40;;;;;;4957871;28;20397;-88
2021/03/13 01:21:33;;;;;;;2.35;1.40;;;7.30;85.00;;;;;;5046181;28;20118;-89
2021/03/13 01:23:58;;;;;;;2.88;0.98;;;7.30;85.20;;;;;;4972856;28;20368;-89
2021/03/13 01:26:24;;;;;;;0.90;0.75;;;7.40;84.90;;;;;;4962040;28;20042;-88
2021/03/13 01:28:49;;;;;;;0.60;0.57;;;7.40;84.80;;;;;;4968838;28;20122;-88
2021/03/13 01:31:15;;;;;;;1.85;0.90;;;7.30;84.80;;;;;;4959065;28;20043;-87
2021/03/13 01:33:40;;;;;;;2.17;0.70;;;7.30;85.00;;;;;;4966084;28;20035;-89
2021/03/13 01:36:06;;;;;;;3.85;1.00;;;7.30;85.20;;;;;;4968528;28;20039;-88
2021/03/13 01:38:32;;;;;;;0.63;0.60;;;7.30;85.20;;;;;;4970384;28;20093;-89
2021/03/13 01:40:58;;;;;;;0.75;0.75;;;7.30;85.10;;;;;;4957014;28;20078;-89
2021/03/13 01:43:24;;;;;;;0.80;0.70;;;7.30;85.20;;;;;;4956077;28;20061;-88
2021/03/13 01:45:50;;;;;;;0.73;0.68;;;7.30;84.90;;;;;;4955811;28;20042;-87
2021/03/13 01:48:17;;;;;;;0.80;0.80;;;7.30;84.80;;;;;;4957688;28;20054;-89
2021/03/13 01:50:42;;;;;;;1.27;0.93;;;7.30;85.00;;;;;;4957414;28;20438;-87
2021/03/13 01:53:08;;;;;;;2.53;1.25;;;7.30;85.10;;;;;;4971322;28;20035;-89
2021/03/13 01:55:34;;;;;;;1.23;0.70;;;7.30;84.90;;;;;;4982629;28;20076;-88
2021/03/13 01:57:59;;;;;;;1.85;1.25;;;7.30;84.40;;;;;;4961254;28;20053;-88
2021/03/13 02:00:25;;;;;;;1.25;0.80;;;7.30;84.50;;;;;;4974665;28;20413;-89
2021/03/13 02:02:51;;;;;;;0.80;0.80;;;7.40;84.10;;;;;;4957060;28;20046;-87
2021/03/13 02:05:26;;;;;;;1.63;0.90;;;7.40;84.40;;;;;;4964127;28;20035;-89
2021/03/13 02:08:04;;;;;;;1.75;1.00;;;7.30;83.90;;;;;;4960031;28;20038;-89
2021/03/13 02:11:03;;;;;;;0.93;0.80;;;7.30;84.60;;;;;;4965235;28;20336;-89
2021/03/13 02:13:53;;;;;;;1.92;0.70;;;7.40;84.20;;;;;;5046648;28;20092;-88
2021/03/13 02:16:28;;;;;;;1.10;0.82;;;7.30;84.70;;;;;;4968512;28;20034;-87
2021/03/13 02:19:31;;;;;;;3.40;0.90;;;7.30;84.80;;;;;;4994077;28;20046;-88
2021/03/13 02:22:07;;;;;;;1.02;0.70;;;7.20;84.80;;;;;;4962562;28;20069;-89
2021/03/13 02:24:59;;;;;;;0.70;0.70;;;7.20;84.40;;;;;;4960158;28;20047;-88
2021/03/13 02:27:27;;;;;;;1.20;0.82;;;7.20;84.70;;;;;;4970055;28;20140;-87
2021/03/13 02:30:03;;;;;;;1.77;0.85;;;7.20;85.00;;;;;;4942497;28;20062;-88
2021/03/13 02:33:07;;;;;;;0.98;0.75;;;7.20;84.70;;;;;;4993331;28;20049;-87
2021/03/13 02:35:35;;;;;;;3.83;1.13;;;7.20;85.10;;;;;;5049640;28;20051;-88
2021/03/13 02:38:05;;;;;;;6.22;0.77;;;7.20;85.10;;;;;;4992723;28;20062;-87
2021/03/13 02:40:31;;;;;;;1.10;1.00;;;7.20;85.20;;;;;;4995645;28;20064;-89
2021/03/13 02:43:03;;;;;;;4.57;0.95;;;7.20;84.80;;;;;;5051736;28;20077;-87
2021/03/13 02:45:32;;;;;;;1.15;0.77;;;7.20;85.50;;;;;;4974913;28;20420;-88
2021/03/13 02:47:59;;;;;;;1.08;1.00;;;7.30;85.30;;;;;;4971042;28;20050;-88
2021/03/13 02:50:26;;;;;;;1.13;0.80;;;7.30;85.00;;;;;;4975811;28;20051;-88
2021/03/13 02:52:54;;;;;;;0.68;0.68;;;7.30;85.60;;;;;;4963826;28;20035;-89
2021/03/13 02:55:21;;;;;;;1.45;0.82;;;7.20;85.50;;;;;;4960625;28;20046;-88
2021/03/13 02:57:49;;;;;;;1.25;1.10;;;7.20;85.90;;;;;;5055060;28;20039;-89
2021/03/13 03:00:17;;;;;;;0.88;0.80;;;7.30;86.00;;;;;;4984934;28;20129;-89
2021/03/13 03:02:47;;;;;;;1.13;0.88;;;7.30;86.40;;;;;;4972145;28;20431;-88
2021/03/13 03:05:17;;;;;;;0.93;0.70;;;7.20;86.20;;;;;;4966323;28;20070;-89
2021/03/13 03:07:44;;;;;;;1.58;1.00;;;7.20;86.70;;;;;;4959392;28;20043;-90
2021/03/13 03:10:10;;;;;;;1.83;0.80;;;7.20;86.70;;;;;;4959036;28;20126;-89
2021/03/13 03:12:37;;;;;;;1.67;0.98;;;7.20;87.00;;;;;;4966317;28;20038;-89
2021/03/13 03:15:05;;;;;;;2.03;1.10;;;7.20;86.90;;;;;;4982271;28;20130;-88
2021/03/13 03:17:33;;;;;;;1.10;0.77;;;7.20;87.00;;;;;;4963346;28;20054;-89
2021/03/13 03:20:00;;;;;;;2.85;1.10;;;7.20;86.60;;;;;;4971345;28;20081;-89
2021/03/13 03:22:26;;;;;;;0.95;0.80;;;7.20;86.40;;;;;;4976446;28;20065;-88
2021/03/13 03:24:54;;;;;;;1.23;0.85;;;7.20;86.50;;;;;;4965045;28;20096;-87
2021/03/13 03:27:19;;;;;;;0.73;0.60;;;7.20;86.20;;;;;;4969077;28;20046;-87
2021/03/13 03:29:45;;;;;;;1.77;0.80;;;7.20;86.30;;;;;;5046469;28;20054;-88
2021/03/13 03:32:10;;;;;;;0.95;0.80;;;7.20;86.10;;;;;;4970985;28;20043;-88
2021/03/13 03:34:36;;;;;;;2.28;0.70;;;7.20;86.30;;;;;;4940931;28;20089;-88
2021/03/13 03:37:04;;;;;;;0.80;0.80;;;7.20;85.90;;;;;;4954573;28;20042;-88
2021/03/13 03:39:30;;;;;;;0.80;0.60;;;7.20;85.80;;;;;;4978762;28;20094;-87
2021/03/13 03:41:59;;;;;;;0.80;0.60;;;7.10;85.70;;;;;;4974311;28;20117;-88
2021/03/13 03:44:27;;;;;;;0.73;0.60;;;7.10;85.80;;;;;;4956448;28;20128;-87
2021/03/13 03:46:56;;;;;;;1.52;0.70;;;7.10;85.90;;;;;;4956373;28;20087;-88
2021/03/13 03:49:24;;;;;;;1.25;0.90;;;7.10;85.70;;;;;;5046696;28;20039;-87
2021/03/13 03:51:50;;;;;;;0.70;0.70;;;7.10;85.70;;;;;;4965814;28;20429;-89
2021/03/13 03:54:18;;;;;;;1.05;0.95;;;7.10;85.90;;;;;;4956970;28;20373;-88
2021/03/13 03:56:45;;;;;;;3.28;0.93;;;7.00;85.90;;;;;;4978794;28;20038;-89
2021/03/13 03:59:16;;;;;;;1.10;0.60;;;7.00;85.90;;;;;;4965864;28;20370;-89
2021/03/13 04:01:50;;;;;;;0.80;0.80;;;7.10;85.90;;;;;;4961152;28;20351;-89
2021/03/13 04:04:20;;;;;;;0.77;0.77;;;7.00;85.80;;;;;;5058288;28;20391;-87
2021/03/13 04:06:47;;;;;;;1.23;0.93;;;7.00;85.80;;;;;;4975123;28;20043;-86
2021/03/13 04:09:14;;;;;;;1.73;0.80;;;7.00;85.80;;;;;;4961050;28;20030;-88
2021/03/13 04:11:41;;;;;;;1.15;0.77;;;7.00;85.80;;;;;;5059248;28;20046;-87
2021/03/13 04:14:08;;;;;;;1.65;1.08;;;7.00;86.00;;;;;;4970445;28;20030;-89
2021/03/13 04:16:34;;;;;;;0.80;0.70;;;7.00;86.10;;;;;;4965631;28;20039;-87
2021/03/13 04:19:01;;;;;;;1.38;1.00;;;7.00;86.20;;;;;;5058922;28;20043;-88
2021/03/13 04:21:28;;;;;;;1.80;1.13;;;6.90;86.30;;;;;;4961536;28;20047;-89
2021/03/13 04:23:54;;;;;;;0.70;0.68;;;6.90;86.30;;;;;;4969044;28;20042;-88
2021/03/13 04:26:21;;;;;;;1.20;0.80;;;6.90;86.30;;;;;;4970845;28;20050;-87
2021/03/13 04:28:47;;;;;;;1.65;1.02;;;6.90;86.60;;;;;;4970660;28;20070;-89
2021/03/13 04:31:14;;;;;;;0.77;0.70;;;6.90;86.80;;;;;;4957982;28;20042;-88
2021/03/13 04:33:40;;;;;;;1.08;0.90;;;6.80;86.90;;;;;;4974136;28;20115;-87
2021/03/13 04:36:07;;;;;;;1.30;1.10;;;6.80;87.10;;;;;;4948618;28;20039;-88
2021/03/13 04:38:34;;;;;;;1.52;1.20;;;6.80;87.20;;;;;;4974103;28;20045;-88
2021/03/13 04:41:00;;;;;;;1.30;1.15;;;6.70;87.20;;;;;;4965314;28;20042;-88
2021/03/13 04:43:26;;;;;;;0.95;0.90;;;6.80;87.50;;;;;;4972773;28;20066;-88
2021/03/13 04:46:00;;;;;;;1.25;0.90;;;6.80;87.50;;;;;;4963501;28;20042;-88
2021/03/13 04:48:27;;;;;;;1.25;0.93;;;6.80;87.30;;;;;;4958363;28;20046;-88
2021/03/13 04:50:56;;;;;;;1.73;1.13;;;6.80;87.20;;;;;;4961686;28;20038;-88
2021/03/13 04:53:22;;;;;;;1.95;1.23;;;6.80;87.20;;;;;;4956417;28;20078;-89
2021/03/13 04:55:47;;;;;;;1.33;1.13;;;6.90;87.10;;;;;;4983668;28;20123;-88
2021/03/13 04:58:13;;;;;;;1.08;0.98;;;6.90;86.90;;;;;;4956095;28;20301;-88
2021/03/13 05:00:39;;;;;;;4.15;1.92;;;6.90;87.00;;;;;;5045637;28;20053;-89
2021/03/13 05:03:04;;;;;;;7.78;1.67;;;7.00;86.90;;;;;;4957874;28;20410;-89
2021/03/13 05:05:33;;;;;;;1.73;1.20;;;7.00;86.60;;;;;;4973198;28;20139;-90
2021/03/13 05:08:01;;;;;;;3.40;1.40;;;7.00;86.80;;;;;;4958328;28;20062;-90
2021/03/13 05:10:27;;;;;;;2.97;1.55;;;7.00;86.80;;;;;;5051522;28;20135;-88
2021/03/13 05:12:53;;;;;;;1.98;1.55;;;6.90;87.10;;;;;;4978143;28;20057;-88
2021/03/13 05:15:19;;;;;;;1.80;1.63;;;6.90;87.10;;;;;;4964088;28;20101;-88
2021/03/13 05:17:45;;;;;;;1.60;1.50;;;6.90;87.30;;;;;;4958916;28;20046;-89
2021/03/13 05:20:11;;;;;;;1.58;1.48;;;6.90;87.00;;;;;;4980123;28;20405;-88
2021/03/13 05:22:37;;;;;;;2.28;1.50;;;6.90;87.20;;;;;;4950995;28;20116;-89
2021/03/13 05:25:04;;;;;;;1.52;1.30;;;7.00;87.10;;;;;;4968077;28;20038;-89
2021/03/13 05:27:29;;;;;;;3.30;1.65;;;6.90;87.10;;;;;;4959611;28;20416;-89
2021/03/13 05:29:55;;;;;;;2.65;1.70;;;7.00;87.30;;;;;;4967184;28;20117;-88
2021/03/13 05:32:20;;;;;;;2.33;1.30;;;6.90;87.20;;;;;;4960034;28;20096;-89
2021/03/13 05:34:46;;;;;;;1.45;1.25;;;6.90;87.50;;;;;;4963123;28;20130;-90
2021/03/13 05:37:11;;;;;;;1.88;1.67;;;6.90;87.50;;;;;;4958202;28;20042;-89
2021/03/13 05:39:37;;;;;;;3.53;1.33;;;6.90;87.50;;;;;;5054011;28;20047;-88
2021/03/13 05:42:03;;;;;;;1.30;1.20;;;7.00;87.60;;;;;;4962112;28;20368;-89
2021/03/13 05:44:28;;;;;;;2.00;1.60;;;7.00;87.50;;;;;;4944844;28;20059;-89
2021/03/13 05:46:54;;;;;;;2.15;1.42;;;7.00;87.50;;;;;;4950559;28;20035;-89
2021/03/13 05:49:21;;;;;;;1.40;1.30;;;7.10;87.40;;;;;;4968778;28;20043;-88
2021/03/13 05:51:47;;;;;;;1.40;1.30;;;7.10;87.50;;;;;;5046183;28;20121;-90
2021/03/13 05:54:17;;;;;;;2.03;1.38;;;7.20;87.00;;;;;;4943300;28;20074;-89
2021/03/13 05:56:43;;;;;;;1.73;1.35;;;7.20;87.00;;;;;;4973830;28;20074;-89
2021/03/13 05:59:13;;;;;;;1.67;1.45;;;7.30;87.20;;;;;;5054375;28;20035;-88
2021/03/13 06:01:42;;;;;;;4.43;1.38;;;7.30;86.90;;;;;;4964353;28;20072;-88
2021/03/13 06:04:08;;;;;;;1.83;1.65;;;7.40;87.50;;;;;;5052022;28;20055;-89
2021/03/13 06:06:38;;;;;;;2.83;1.80;;;7.30;86.50;;;;;;4966647;28;20043;-89
2021/03/13 06:09:04;;;;;;;1.90;1.50;;;7.50;86.80;;;;;;4968849;28;20300;-89
2021/03/13 06:11:29;;;;;;;2.92;1.65;;;7.50;86.50;;;;;;4967495;28;20039;-88
2021/03/13 06:13:55;;;;;;;3.25;1.75;;;7.50;86.70;;;;;;5050374;28;20047;-88
2021/03/13 06:16:22;;;;;;;2.55;1.88;;;7.60;86.50;;;;;;4982441;28;20035;-88
2021/03/13 06:18:47;;;;;;;3.95;1.73;;;7.50;86.90;;;;;;4964736;28;20039;-87
2021/03/13 06:21:36;;;;;;;1.50;1.40;;;7.60;87.00;;;;;;4980542;28;20054;-90
2021/03/13 06:24:21;;;;;;;2.95;1.80;;;7.60;86.40;;;;;;4980221;28;20646;-89
2021/03/13 06:27:00;;;;;;;1.63;1.20;;;7.70;86.30;;;;;;4994712;28;20284;-88
2021/03/13 06:29:28;;;;;;;2.97;1.08;;;7.70;87.00;;;;;;4968922;28;20054;-89
2021/03/13 06:32:11;;;;;;;3.17;1.27;;;7.70;86.40;;;;;;5044500;28;20047;-89
2021/03/13 06:34:38;;;;;;;3.67;1.30;;;7.80;86.60;;;;;;4959967;28;20282;-89
2021/03/13 06:37:33;;;;;;;3.08;2.15;;;7.80;86.80;;;;;;4976962;28;20031;-89
2021/03/13 06:39:59;;;;;;;5.78;3.70;;;7.80;87.20;;;;;;4960558;28;20309;-89
2021/03/13 06:42:29;;;;;;;9.20;5.07;;;7.90;87.60;;;;;;5060796;28;20039;-88
2021/03/13 06:45:10;;;;;;;4.93;3.00;;;7.90;87.50;;;;;;4965818;28;20058;-88
2021/03/13 06:47:40;;;;;;;4.45;3.65;;;7.90;88.20;;;;;;5018725;28;20119;-88
2021/03/13 06:50:23;;;;;;;13.38;5.60;;;7.90;88.50;;;;;;4984111;28;20074;-89
2021/03/13 06:52:51;;;;;;;;;;;8.00;88.50;;;;;;4976837;28;20396;-88
2021/03/13 06:55:23;;;;;;;3.97;2.30;;;8.00;89.10;;;;;;4960626;28;20283;-88
2021/03/13 06:57:49;;;;;;;;;;;7.90;90.00;;;;;;5018944;28;20054;-87
2021/03/13 07:00:33;;;;;;;2.60;1.52;;;8.00;89.20;;;;;;5005202;28;19926;-88
2021/03/13 07:03:10;;;;;;;1.95;0.90;;;8.00;89.50;;;;;;4979423;28;20038;-88
2021/03/13 07:05:38;;;;;;;2.65;2.08;;;8.00;89.30;;;;;;5030139;28;20119;-88
2021/03/13 07:08:23;;;;;;;2.15;1.80;;;8.00;89.10;;;;;;5022288;28;20093;-88
2021/03/13 07:10:49;;;;;;;2.90;2.30;;;8.10;88.90;;;;;;4977335;28;20157;-88
2021/03/13 07:13:46;;;;;;;1.10;1.00;;;8.10;88.70;;;;;;4977634;28;20066;-88
2021/03/13 07:16:28;;;;;;;1.48;1.05;;;8.20;88.70;;;;;;4965009;28;20494;-90
2021/03/13 07:18:59;;;;;;;1.40;0.98;;;8.20;88.90;;;;;;4986786;28;20030;-89
2021/03/13 07:21:25;;;;;;;1.95;1.60;;;8.20;87.80;;;;;;4995493;28;20100;-89
2021/03/13 07:23:57;;;;;;;1.85;1.08;;;8.30;87.70;;;;;;4960372;28;20066;-90
2021/03/13 07:26:24;;;;;;;0.85;0.77;;;8.40;87.40;;;;;;4967167;28;20454;-89
2021/03/13 07:29:00;;;;;;;3.00;2.70;;;8.40;87.00;;;;;;4964483;28;20050;-89
2021/03/13 07:31:29;;;;;;;0.80;0.80;;;8.50;86.40;;;;;;5006429;28;20277;-88
2021/03/13 07:33:59;;;;;;;1.30;1.20;;;8.60;85.80;;;;;;4948064;28;20043;-90
2021/03/13 07:36:25;;;;;;;0.60;0.60;;;8.70;85.60;;;;;;4962446;28;20456;-88
2021/03/13 07:38:53;;;;;;;0.60;0.60;;;8.80;85.50;;;;;;4984807;28;20050;-88
2021/03/13 07:41:19;;;;;;;0.70;0.70;;;8.90;85.30;;;;;;4974607;28;20283;-89
2021/03/13 07:43:46;;;;;;;0.63;0.63;;;9.00;85.10;;;;;;4984215;28;20039;-89
2021/03/13 07:46:12;;;;;;;0.70;0.70;;;9.00;84.60;;;;;;5044958;28;20424;-89
2021/03/13 07:48:39;;;;;;;0.70;0.70;;;9.10;84.20;;;;;;4975543;28;20092;-89
2021/03/13 07:51:05;;;;;;;0.60;0.60;;;9.20;83.70;;;;;;4971688;28;20043;-91
2021/03/13 07:53:35;;;;;;;0.70;0.50;;;9.30;84.20;;;;;;4979865;28;20300;-89
2021/03/13 07:56:02;;;;;;;0.50;0.50;;;9.30;83.60;;;;;;4962277;28;20359;-90
2021/03/13 07:58:29;;;;;;;0.88;0.60;;;9.40;83.40;;;;;;4993103;28;20045;-90
2021/03/13 08:00:55;;;;;;;0.47;0.47;;;9.30;83.40;;;;;;4970958;28;20058;-88
2021/03/13 08:03:27;;;;;;;1.00;0.90;;;9.30;83.40;;;;;;4992767;28;20137;-88
2021/03/13 08:05:58;;;;;;;1.20;1.10;;;9.40;83.40;;;;;;5053956;28;20039;-89
2021/03/13 08:08:40;;;;;;;0.60;0.60;;;9.40;82.90;;;;;;4982570;28;20034;-89
2021/03/13 08:11:10;;;;;;;0.83;0.83;;;9.50;83.30;;;;;;4968959;28;20089;-88
2021/03/13 08:13:36;;;;;;;1.00;0.80;;;9.50;82.90;;;;;;4966049;28;20289;-90
2021/03/13 08:16:09;;;;;;;1.23;0.60;;;9.50;82.50;;;;;;5075558;28;20047;-89
2021/03/13 08:18:42;;;;;;;0.95;0.68;;;9.60;82.90;;;;;;4986777;28;20483;-89
2021/03/13 08:21:19;;;;;;;;;;;9.70;82.80;;;;;;5013382;28;20053;-88
2021/03/13 08:23:50;;;;;;;0.75;0.60;;;9.80;82.10;;;;;;4976697;28;20027;-89
2021/03/13 08:26:34;;;;;;;0.70;0.60;;;9.80;82.50;;;;;;4982031;28;20397;-89
2021/03/13 08:29:02;;;;;;;1.25;0.60;;;9.90;81.60;;;;;;4976905;28;20043;-88
2021/03/13 08:31:28;;;;;;;0.50;0.50;;;9.90;81.40;;;;;;4965908;28;20521;-88
2021/03/13 08:33:55;;;;;;;0.55;0.40;;;10.00;81.00;;;;;;5054223;28;20141;-89
2021/03/13 08:36:23;;;;;;;0.57;0.57;;;10.10;80.60;;;;;;4966950;28;20038;-89
2021/03/13 08:39:02;;;;;;;1.00;0.70;;;10.20;80.30;;;;;;4980197;28;20039;-87
2021/03/13 08:41:45;;;;;;;0.85;0.70;;;10.20;79.40;;;;;;4995608;28;20038;-89
2021/03/13 08:44:26;;;;;;;0.65;0.65;;;10.30;79.40;;;;;;4962016;28;20061;-90
2021/03/13 08:47:05;;;;;;;0.93;0.50;;;10.40;79.50;;;;;;5058605;28;20045;-89
2021/03/13 08:49:31;;;;;;;0.60;0.55;;;10.30;79.00;;;;;;4983868;28;20057;-90
2021/03/13 08:52:03;;;;;;;0.63;0.60;;;10.30;79.40;;;;;;4989513;28;20113;-89
2021/03/13 08:54:37;;;;;;;0.60;0.57;;;10.40;80.10;;;;;;5052771;28;20039;-90
2021/03/13 08:57:07;;;;;;;3.58;0.65;;;10.40;78.50;;;;;;5042338;28;20039;-90
2021/03/13 08:59:34;;;;;;;0.52;0.50;;;10.40;79.30;;;;;;4982731;28;20050;-90
2021/03/13 09:02:04;;;;;;;0.60;0.57;;;10.40;79.40;;;;;;4971174;28;20041;-89
2021/03/13 09:04:35;;;;;;;1.38;0.77;;;10.30;78.60;;;;;;5059235;28;20053;-90
2021/03/13 09:07:01;;;;;;;2.13;1.17;;;10.40;79.00;;;;;;4972820;28;20034;-88
2021/03/13 09:09:29;;;;;;;0.98;0.90;;;10.40;78.80;;;;;;4969910;28;20035;-89
2021/03/13 09:12:05;;;;;;;0.88;0.73;;;10.40;79.00;;;;;;4969311;28;20057;-88
2021/03/13 09:14:31;;;;;;;0.75;0.70;;;10.40;80.10;;;;;;4964086;28;20035;-92
2021/03/13 09:16:56;;;;;;;0.70;0.70;;;10.50;79.60;;;;;;4990803;28;20403;-90
2021/03/13 09:19:24;;;;;;;0.73;0.60;;;10.50;79.30;;;;;;4984893;28;20030;-90
2021/03/13 09:21:54;;;;;;;1.02;0.75;;;10.50;78.70;;;;;;4972301;28;20046;-90
2021/03/13 09:24:27;;;;;;;1.02;0.90;;;10.50;78.60;;;;;;4966588;28;20127;-88
2021/03/13 09:26:55;;;;;;;2.08;0.88;;;10.40;79.00;;;;;;4972729;28;20535;-90
2021/03/13 09:29:41;;;;;;;0.60;0.60;;;10.40;79.40;;;;;;4993592;28;20061;-90
2021/03/13 09:32:09;;;;;;;3.10;0.80;;;10.40;79.10;;;;;;4982681;28;20034;-91
2021/03/13 09:34:40;;;;;;;0.70;0.70;;;10.40;79.80;;;;;;4972910;28;20035;-89
2021/03/13 09:37:09;;;;;;;2.50;0.80;;;10.40;79.80;;;;;;4987654;28;20050;-91
2021/03/13 09:39:38;;;;;;;0.70;0.70;;;10.50;79.90;;;;;;4999774;28;20041;-91
2021/03/13 09:42:24;;;;;;;1.60;0.70;;;10.50;79.20;;;;;;4980386;28;20080;-92
2021/03/13 09:45:01;;;;;;;0.70;0.70;;;10.60;79.50;;;;;;4983701;28;20123;-91
2021/03/13 09:47:42;;;;;;;3.03;0.98;;;10.60;79.30;;;;;;4980129;28;20098;-91
2021/03/13 09:50:19;;;;;;;1.92;0.90;;;10.60;79.50;;;;;;4980183;28;20281;-92
2021/03/13 09:52:49;;;;;;;1.75;0.90;;;10.70;79.00;;;;;;4979491;28;20038;-92
2021/03/13 09:55:24;;;;;;;1.65;1.20;;;10.70;79.20;;;;;;4978114;28;21603;-90
2021/03/13 09:57:54;;;;;;;1.75;0.65;;;10.80;78.30;;;;;;4988349;28;20038;-90
2021/03/13 10:00:25;;;;;;;0.80;0.80;;;10.90;79.10;;;;;;4988662;28;20046;-90
2021/03/13 10:02:52;;;;;;;3.90;0.93;;;10.90;77.90;;;;;;4979101;28;20057;-89
2021/03/13 10:05:20;;;;;;;0.85;0.70;;;11.00;77.90;;;;;;4978992;28;20038;-90
2021/03/13 10:07:51;;;;;;;1.83;0.88;;;11.00;77.40;;;;;;4980845;28;20060;-91
2021/03/13 10:10:18;;;;;;;1.40;0.75;;;11.10;77.60;;;;;;4996240;28;20346;-91
2021/03/13 10:12:46;;;;;;;0.95;0.70;;;11.20;77.50;;;;;;4998844;28;20034;-88
2021/03/13 10:15:31;;;;;;;3.63;2.35;;;11.20;76.50;;;;;;5016824;28;20080;-91
2021/03/13 10:18:06;;;;;;;5.07;4.38;;;11.30;77.00;;;;;;4997499;28;20038;-92
2021/03/13 10:20:34;;;;;;;4.10;2.47;;;11.20;76.90;;;;;;4994588;28;20103;-90
2021/03/13 10:23:14;;;;;;;6.43;1.02;;;11.30;77.10;;;;;;4973192;28;20107;-91
2021/03/13 10:25:59;;;;;;;1.27;0.73;;;11.20;76.20;;;;;;4955196;28;20046;-90
2021/03/13 10:28:31;;;;;;;1.25;1.00;;;11.20;76.30;;;;;;4983662;28;20061;-90
2021/03/13 10:31:10;;;;;;;1.08;0.60;;;11.20;76.70;;;;;;4986650;28;20400;-91
2021/03/13 10:33:37;;;;;;;18.15;13.20;;;11.10;76.20;;;;;;4978201;28;20042;-91
2021/03/13 10:36:04;;;;;;;2.40;1.80;;;11.10;76.70;;;;;;4959441;28;20108;-89
2021/03/13 10:38:40;;;;;;;1.63;0.88;;;11.20;76.40;;;;;;4943229;28;20727;-90
2021/03/13 10:41:14;;;;;;;1.95;0.80;;;11.20;76.00;;;;;;4943254;28;20412;-89
2021/03/13 10:43:44;;;;;;;1.48;0.60;;;11.20;76.50;;;;;;4943135;28;20104;-90
2021/03/13 10:46:20;;;;;;;0.93;0.60;;;11.20;75.50;;;;;;4974434;28;20042;-93
2021/03/13 10:48:49;;;;;;;15.73;14.27;;;11.30;75.40;;;;;;4973591;28;20123;-92
2021/03/13 10:51:41;;;;;;;3.50;2.05;;;11.30;75.10;;;;;;4974338;28;20050;-91
2021/03/13 10:54:19;;;;;;;0.60;0.60;;;11.40;75.00;;;;;;4972274;28;20035;-93
2021/03/13 10:56:45;;;;;;;2.17;0.60;;;11.50;75.10;;;;;;4972972;28;20080;-92
2021/03/13 10:59:11;;;;;;;2.05;0.57;;;11.60;75.00;;;;;;4982208;28;20038;-91
2021/03/13 11:01:42;;;;;;;3.38;0.70;;;11.70;74.30;;;;;;4974537;28;20035;-92
2021/03/13 11:04:08;;;;;;;3.58;0.75;;;11.80;73.90;;;;;;4969700;28;20039;-92
2021/03/13 11:06:35;;;;;;;0.77;0.60;;;11.80;73.60;;;;;;4965174;28;20065;-92
2021/03/13 11:09:06;;;;;;;1.00;0.70;;;11.80;74.10;;;;;;5023794;28;20035;-92
2021/03/13 11:11:32;;;;;;;1.40;0.60;;;11.70;73.70;;;;;;4967603;28;20049;-91
2021/03/13 11:13:57;;;;;;;2.33;0.50;;;11.70;73.70;;;;;;4998527;28;20038;-91
2021/03/13 11:16:23;;;;;;;4.25;0.60;;;11.70;73.70;;;;;;4976537;28;20340;-91
2021/03/13 11:18:54;;;;;;;4.80;0.55;;;11.70;74.20;;;;;;4962184;28;20035;-92
2021/03/13 11:21:23;;;;;;;8.90;0.82;;;11.70;74.10;;;;;;4979749;28;20045;-91
2021/03/13 11:23:49;;;;;;;4.72;1.10;;;11.70;73.20;;;;;;4981600;28;20042;-92
2021/03/13 11:26:16;;;;;;;6.97;0.80;;;11.80;73.70;;;;;;4975058;28;20142;-93
2021/03/13 11:28:42;;;;;;;3.15;0.85;;;11.90;74.10;;;;;;4964095;28;20049;-93
2021/03/13 11:31:07;;;;;;;4.20;0.63;;;12.00;72.80;;;;;;4967611;28;20133;-93
2021/03/13 11:33:33;;;;;;;4.85;0.65;;;12.10;73.60;;;;;;4983352;28;20034;-93
2021/03/13 11:35:59;;;;;;;1.70;0.95;;;12.20;71.60;;;;;;4962414;28;20035;-92
2021/03/13 11:38:24;;;;;;;1.70;0.50;;;12.30;71.70;;;;;;4969912;28;20039;-92
2021/03/13 11:40:50;;;;;;;1.10;0.70;;;12.30;71.80;;;;;;4973167;28;20133;-91
2021/03/13 11:43:15;;;;;;;5.05;1.08;;;12.50;71.20;;;;;;4962142;28;20179;-92
2021/03/13 11:45:41;;;;;;;6.38;1.02;;;12.60;71.20;;;;;;4961886;28;20077;-93
2021/03/13 11:48:07;;;;;;;2.78;0.90;;;12.70;70.10;;;;;;4962109;28;20043;-94
2021/03/13 11:50:33;;;;;;;0.43;0.40;;;12.70;69.80;;;;;;4962260;28;20045;-92
2021/03/13 11:53:01;;;;;;;3.90;0.70;;;12.70;69.80;;;;;;4961761;28;20035;-94
2021/03/13 11:55:27;;;;;;;1.00;0.50;;;12.60;69.50;;;;;;4961747;28;20508;-95
2021/03/13 11:57:53;;;;;;;6.43;1.08;;;12.60;69.10;;;;;;4961750;28;20042;-92
2021/03/13 12:00:20;;;;;;;3.72;0.90;;;12.70;69.90;;;;;;4968868;28;20388;-92
2021/03/13 12:02:45;;;;;;;1.88;0.82;;;12.70;68.70;;;;;;4980984;28;20713;-95
2021/03/13 12:05:11;;;;;;;1.55;0.90;;;12.80;69.60;;;;;;4980932;28;20107;-93
2021/03/13 12:07:41;;;;;;;7.88;0.70;;;12.80;70.10;;;;;;4980891;28;20038;-91
2021/03/13 12:10:10;;;;;;;6.72;0.60;;;12.80;69.70;;;;;;4967330;28;20434;-91
2021/03/13 12:12:37;;;;;;;2.35;0.60;;;12.70;69.20;;;;;;4966252;28;20034;-92
2021/03/13 12:15:09;;;;;;;3.05;0.65;;;12.60;69.30;;;;;;4969614;28;20035;-94
2021/03/13 12:17:38;;;;;;;5.47;0.55;;;12.60;69.80;;;;;;4981664;28;20042;-90
2021/03/13 12:20:07;;;;;;;3.58;0.57;;;12.60;69.10;;;;;;4961098;28;20039;-93
2021/03/13 12:22:32;;;;;;;0.55;0.40;;;12.60;69.50;;;;;;4977568;28;20416;-92
2021/03/13 12:24:58;;;;;;;0.60;0.40;;;12.60;70.20;;;;;;4960697;28;20066;-93
2021/03/13 12:27:23;;;;;;;0.55;0.55;;;12.60;70.80;;;;;;4961086;28;20040;-89
2021/03/13 12:29:50;;;;;;;1.58;0.50;;;12.70;69.70;;;;;;4960302;28;20039;-93
2021/03/13 12:32:16;;;;;;;2.03;0.60;;;12.70;69.40;;;;;;4960510;28;20168;-92
2021/03/13 12:34:42;;;;;;;1.85;0.50;;;12.70;69.90;;;;;;4961927;28;20125;-93
2021/03/13 12:37:07;;;;;;;0.52;0.50;;;12.70;70.50;;;;;;5059281;28;20074;-92
2021/03/13 12:39:33;;;;;;;1.02;0.50;;;12.70;70.20;;;;;;4961465;28;20042;-91
2021/03/13 12:41:59;;;;;;;5.57;0.70;;;12.70;69.90;;;;;;4957601;28;20085;-92
2021/03/13 12:44:25;;;;;;;1.00;0.40;;;12.70;69.60;;;;;;4960238;28;20305;-93
2021/03/13 12:46:50;;;;;;;3.05;1.67;;;12.80;69.50;;;;;;4960977;28;20043;-92
2021/03/13 12:49:22;;;;;;;1.85;0.40;;;12.80;69.80;;;;;;4960507;28;20042;-92
2021/03/13 12:51:50;;;;;;;7.47;1.13;;;12.80;69.30;;;;;;4949239;28;20263;-91
2021/03/13 12:54:15;;;;;;;7.60;0.80;;;12.80;69.40;;;;;;4949608;29;20043;-92
2021/03/13 12:56:42;;;;;;;4.60;0.75;;;12.70;70.00;;;;;;4958850;28;20355;-92
2021/03/13 12:59:07;;;;;;;9.95;1.00;;;12.50;70.30;;;;;;4960424;28;20129;-92
2021/03/13 13:01:33;;;;;;;7.82;1.10;;;12.50;70.70;;;;;;4963166;28;20360;-92
2021/03/13 13:04:01;;;;;;;15.85;1.98;;;12.40;70.20;;;;;;4960598;28;20043;-92